sensor_id;sensor_type;location;lat;lon;timestamp;temperature;humidity
55711;DHT22;41612;51.994;5.880;2023-03-01T13:39:00;26.50;19.00
55711;DHT22;41612;51.994;5.880;2023-03-01T13:50:23;27.20;19.30
55711;DHT22;41612;51.994;5.880;2023-03-01T13:52:54;27.20;21.20
55711;DHT22;41612;51.994;5.880;2023-03-01T13:58:15;27.70;21.20
55711;DHT22;41612;51.994;5.880;2023-03-01T14:00:41;28.00;21.30
55711;DHT22;41612;51.994;5.880;2023-03-01T14:03:18;27.90;22.50
55711;DHT22;41612;51.994;5.880;2023-03-01T14:08:35;28.30;19.70
55711;DHT22;41612;51.994;5.880;2023-03-01T14:13:57;28.40;21.10
55711;DHT22;41612;51.994;5.880;2023-03-01T14:16:43;28.20;18.70
55711;DHT22;41612;51.994;5.880;2023-03-01T14:19:20;27.90;17.40
55711;DHT22;41612;51.994;5.880;2023-03-01T14:22:04;27.60;22.30
55711;DHT22;41612;51.994;5.880;2023-03-01T14:24:44;27.30;22.40
55711;DHT22;41612;51.994;5.880;2023-03-01T14:27:12;26.90;22.80
55711;DHT22;41612;51.994;5.880;2023-03-01T14:29:39;26.70;22.90
55711;DHT22;41612;51.994;5.880;2023-03-01T14:32:18;26.80;23.30
55711;DHT22;41612;51.994;5.880;2023-03-01T14:34:47;27.00;22.20
55711;DHT22;41612;51.994;5.880;2023-03-01T14:37:25;27.20;22.90
55711;DHT22;41612;51.994;5.880;2023-03-01T14:39:57;27.10;23.40
55711;DHT22;41612;51.994;5.880;2023-03-01T14:42:26;27.30;21.40
55711;DHT22;41612;51.994;5.880;2023-03-01T14:44:57;27.30;21.40
55711;DHT22;41612;51.994;5.880;2023-03-01T14:47:28;27.30;23.20
55711;DHT22;41612;51.994;5.880;2023-03-01T14:49:59;27.20;22.60
55711;DHT22;41612;51.994;5.880;2023-03-01T14:52:36;27.30;22.60
55711;DHT22;41612;51.994;5.880;2023-03-01T14:55:07;27.00;22.50
55711;DHT22;41612;51.994;5.880;2023-03-01T14:57:43;26.80;23.30
55711;DHT22;41612;51.994;5.880;2023-03-01T15:00:21;27.00;18.60
55711;DHT22;41612;51.994;5.880;2023-03-01T15:02:48;26.90;20.30
55711;DHT22;41612;51.994;5.880;2023-03-01T15:05:20;26.80;22.20
55711;DHT22;41612;51.994;5.880;2023-03-01T15:07:48;26.80;19.80
55711;DHT22;41612;51.994;5.880;2023-03-01T15:10:29;27.10;21.20
55711;DHT22;41612;51.994;5.880;2023-03-01T15:12:55;26.80;23.10
55711;DHT22;41612;51.994;5.880;2023-03-01T15:15:34;26.50;23.80
55711;DHT22;41612;51.994;5.880;2023-03-01T15:18:03;26.50;23.60
55711;DHT22;41612;51.994;5.880;2023-03-01T15:20:30;26.10;20.40
55711;DHT22;41612;51.994;5.880;2023-03-01T15:23:01;26.00;24.10
55711;DHT22;41612;51.994;5.880;2023-03-01T15:25:31;25.60;21.50
55711;DHT22;41612;51.994;5.880;2023-03-01T15:27:59;25.20;24.00
55711;DHT22;41612;51.994;5.880;2023-03-01T15:30:31;24.70;25.20
55711;DHT22;41612;51.994;5.880;2023-03-01T15:33:29;24.40;24.00
55711;DHT22;41612;51.994;5.880;2023-03-01T15:36:02;24.20;26.10
55711;DHT22;41612;51.994;5.880;2023-03-01T15:38:50;23.90;27.20
55711;DHT22;41612;51.994;5.880;2023-03-01T15:41:46;23.50;25.70
55711;DHT22;41612;51.994;5.880;2023-03-01T15:44:35;23.60;26.60
55711;DHT22;41612;51.994;5.880;2023-03-01T15:47:03;24.00;21.50
55711;DHT22;41612;51.994;5.880;2023-03-01T15:49:40;24.50;26.80
55711;DHT22;41612;51.994;5.880;2023-03-01T15:55:02;25.00;23.50
55711;DHT22;41612;51.994;5.880;2023-03-01T15:57:29;24.70;24.00
55711;DHT22;41612;51.994;5.880;2023-03-01T15:59:55;24.80;24.70
55711;DHT22;41612;51.994;5.880;2023-03-01T16:02:23;24.90;24.70
55711;DHT22;41612;51.994;5.880;2023-03-01T16:04:50;25.00;25.50
55711;DHT22;41612;51.994;5.880;2023-03-01T16:07:16;25.00;24.10
55711;DHT22;41612;51.994;5.880;2023-03-01T16:09:45;25.00;25.80
55711;DHT22;41612;51.994;5.880;2023-03-01T16:12:14;24.90;24.00
55711;DHT22;41612;51.994;5.880;2023-03-01T16:14:40;24.60;22.50
55711;DHT22;41612;51.994;5.880;2023-03-01T16:17:06;24.40;26.30
55711;DHT22;41612;51.994;5.880;2023-03-01T16:19:36;24.20;27.20
55711;DHT22;41612;51.994;5.880;2023-03-01T16:22:03;24.10;27.40
55711;DHT22;41612;51.994;5.880;2023-03-01T16:24:28;23.80;24.50
55711;DHT22;41612;51.994;5.880;2023-03-01T16:26:54;23.50;27.50
55711;DHT22;41612;51.994;5.880;2023-03-01T16:29:20;23.10;27.80
55711;DHT22;41612;51.994;5.880;2023-03-01T16:31:45;21.70;29.70
55711;DHT22;41612;51.994;5.880;2023-03-01T16:34:12;19.90;30.70
55711;DHT22;41612;51.994;5.880;2023-03-01T16:36:38;18.20;34.10
55711;DHT22;41612;51.994;5.880;2023-03-01T16:39:04;16.70;35.40
55711;DHT22;41612;51.994;5.880;2023-03-01T16:41:30;15.50;39.20
55711;DHT22;41612;51.994;5.880;2023-03-01T16:43:56;14.50;42.30
55711;DHT22;41612;51.994;5.880;2023-03-01T16:46:27;13.80;44.70
55711;DHT22;41612;51.994;5.880;2023-03-01T16:48:54;13.20;41.30
55711;DHT22;41612;51.994;5.880;2023-03-01T16:51:20;12.70;47.70
55711;DHT22;41612;51.994;5.880;2023-03-01T16:53:47;12.30;47.00
55711;DHT22;41612;51.994;5.880;2023-03-01T16:56:14;12.00;50.10
55711;DHT22;41612;51.994;5.880;2023-03-01T16:58:40;11.70;49.00
55711;DHT22;41612;51.994;5.880;2023-03-01T17:01:09;11.50;51.60
55711;DHT22;41612;51.994;5.880;2023-03-01T17:03:36;11.30;51.30
55711;DHT22;41612;51.994;5.880;2023-03-01T17:06:09;11.10;50.70
55711;DHT22;41612;51.994;5.880;2023-03-01T17:08:36;10.80;53.00
55711;DHT22;41612;51.994;5.880;2023-03-01T17:11:04;10.70;53.60
55711;DHT22;41612;51.994;5.880;2023-03-01T17:13:30;10.50;55.00
55711;DHT22;41612;51.994;5.880;2023-03-01T17:15:56;10.40;55.60
55711;DHT22;41612;51.994;5.880;2023-03-01T17:18:22;10.20;55.30
55711;DHT22;41612;51.994;5.880;2023-03-01T17:20:47;10.20;55.90
55711;DHT22;41612;51.994;5.880;2023-03-01T17:23:13;10.10;56.00
55711;DHT22;41612;51.994;5.880;2023-03-01T17:25:43;10.00;56.40
55711;DHT22;41612;51.994;5.880;2023-03-01T17:28:13;9.80;56.70
55711;DHT22;41612;51.994;5.880;2023-03-01T17:30:43;9.70;55.50
55711;DHT22;41612;51.994;5.880;2023-03-01T17:33:10;9.70;57.40
55711;DHT22;41612;51.994;5.880;2023-03-01T17:35:39;9.60;57.60
55711;DHT22;41612;51.994;5.880;2023-03-01T17:38:06;9.40;57.90
55711;DHT22;41612;51.994;5.880;2023-03-01T17:40:32;9.40;58.50
55711;DHT22;41612;51.994;5.880;2023-03-01T17:42:58;9.30;58.30
55711;DHT22;41612;51.994;5.880;2023-03-01T17:45:27;9.20;58.70
55711;DHT22;41612;51.994;5.880;2023-03-01T17:47:53;9.10;58.50
55711;DHT22;41612;51.994;5.880;2023-03-01T17:50:24;9.00;59.70
55711;DHT22;41612;51.994;5.880;2023-03-01T17:52:57;9.00;60.10
55711;DHT22;41612;51.994;5.880;2023-03-01T17:55:23;8.90;60.40
55711;DHT22;41612;51.994;5.880;2023-03-01T17:57:49;8.80;59.20
55711;DHT22;41612;51.994;5.880;2023-03-01T18:00:16;8.70;60.20
55711;DHT22;41612;51.994;5.880;2023-03-01T18:02:43;8.70;59.30
55711;DHT22;41612;51.994;5.880;2023-03-01T18:05:09;8.60;60.60
55711;DHT22;41612;51.994;5.880;2023-03-01T18:07:35;8.50;59.90
55711;DHT22;41612;51.994;5.880;2023-03-01T18:10:02;8.40;61.00
55711;DHT22;41612;51.994;5.880;2023-03-01T18:12:29;8.30;61.10
55711;DHT22;41612;51.994;5.880;2023-03-01T18:14:55;8.30;62.40
55711;DHT22;41612;51.994;5.880;2023-03-01T18:17:24;8.20;61.70
55711;DHT22;41612;51.994;5.880;2023-03-01T18:19:50;8.10;59.90
55711;DHT22;41612;51.994;5.880;2023-03-01T18:22:16;8.00;61.50
55711;DHT22;41612;51.994;5.880;2023-03-01T18:24:42;8.00;60.30
55711;DHT22;41612;51.994;5.880;2023-03-01T18:27:08;7.90;62.70
